Galbraith, Iowa
Current Conditions -  °F | °C
As of 3:15 AM on Sunday 21 Dec 2014 (Local Time) from KAXA Reporting Station
Moderate Fog Moderate Fog  
Wind Chill: 25°   Ceiling: 200
Heat Index: 34°   Visibility: 0.25mi
Dew Point: 34°   Wind: 13mph
Humidity: 100%   Direction: 160°SSE
Pressure: 29.96"   Gusts: NA
Location:  42.991°N, 94.0912°W
Report Text: KAXA 210915Z AUTO 16011KT 1/4SM FG OVC002 01/01 A2996 RMK AO2
Loading
Personal Weather Stations






























Interactive Weather Map New forecast layout! Learn more

10-Day Weather Forecast

Advertisements
Track Severe Weather on mobile